createdAt,value
2023-01-26T00:01:41.118Z,-5.87
2023-01-26T00:05:55.449Z,-6.05
2023-01-26T00:10:16.103Z,-6.17
2023-01-26T00:14:33.368Z,-6.16
2023-01-26T00:18:53.761Z,-6.22
2023-01-26T00:23:15.114Z,-6.30
2023-01-26T00:27:33.450Z,-6.41
2023-01-26T00:31:58.438Z,-6.47
2023-01-26T00:36:27.182Z,-6.40
2023-01-26T00:40:44.277Z,-6.49
2023-01-26T00:45:09.036Z,-6.48
2023-01-26T00:49:13.933Z,-6.40
2023-01-26T00:53:08.400Z,-6.31
2023-01-26T00:57:05.766Z,-6.24
2023-01-26T01:01:46.764Z,-6.28
2023-01-26T01:06:14.684Z,-6.36
2023-01-26T01:10:45.492Z,-6.36
2023-01-26T01:15:11.099Z,-6.45
2023-01-26T01:19:38.796Z,-6.49
2023-01-26T01:24:09.408Z,-6.61
2023-01-26T01:28:26.271Z,-6.80
2023-01-26T01:37:44.664Z,-7.15
2023-01-26T01:42:01.867Z,-6.95
2023-01-26T01:50:52.490Z,-7.25
2023-01-26T01:55:20.648Z,-7.36
2023-01-26T01:59:52.336Z,-7.27
2023-01-26T02:04:12.975Z,-7.40
2023-01-26T02:08:31.052Z,-7.40
2023-01-26T02:12:25.062Z,-7.33
2023-01-26T02:16:34.592Z,-7.24
2023-01-26T02:21:15.049Z,-7.26
2023-01-26T02:25:43.005Z,-7.38
2023-01-26T02:30:22.564Z,-7.47
2023-01-26T02:34:20.843Z,-7.41
2023-01-26T02:38:45.936Z,-7.49
2023-01-26T02:43:23.119Z,-7.46
2023-01-26T02:48:00.603Z,-7.46
2023-01-26T02:52:12.954Z,-7.69
2023-01-26T02:56:46.800Z,-7.73
2023-01-26T03:00:43.692Z,-7.69
2023-01-26T03:05:06.087Z,-7.49
2023-01-26T03:09:25.614Z,-7.25
2023-01-26T03:17:19.112Z,-7.09
2023-01-26T03:21:13.940Z,-7.22
2023-01-26T03:25:15.058Z,-7.42
2023-01-26T03:29:37.092Z,-7.61
2023-01-26T03:37:00.397Z,-7.73
2023-01-26T03:40:37.979Z,-7.97
2023-01-26T03:44:40.730Z,-8.15
2023-01-26T03:48:52.878Z,-8.49
2023-01-26T03:53:30.897Z,-8.62
2023-01-26T03:57:49.284Z,-8.87
2023-01-26T04:01:44.425Z,-9.07
2023-01-26T04:05:38.714Z,-9.03
2023-01-26T04:16:25.792Z,-9.25
2023-01-26T04:20:15.075Z,-9.18
2023-01-26T04:24:07.162Z,-9.26
2023-01-26T04:27:54.389Z,-9.19
2023-01-26T04:31:46.187Z,-9.30
2023-01-26T04:35:42.126Z,-9.22
2023-01-26T04:39:45.283Z,-9.30
2023-01-26T04:43:30.141Z,-9.08
2023-01-26T04:47:24.179Z,-9.41
2023-01-26T04:51:14.175Z,-9.44
2023-01-26T04:55:11.183Z,-9.63
2023-01-26T04:59:01.148Z,-9.92
2023-01-26T05:02:48.181Z,-9.81
2023-01-26T05:06:37.196Z,-9.58
2023-01-26T05:10:29.193Z,-9.57
2023-01-26T05:15:26.254Z,-9.65
2023-01-26T05:19:22.271Z,-9.56
2023-01-26T05:23:44.314Z,-9.56
2023-01-26T05:27:49.231Z,-9.64
2023-01-26T05:31:42.498Z,-9.19
2023-01-26T05:35:34.268Z,-9.44
2023-01-26T05:40:00.220Z,-9.12
2023-01-26T05:44:33.289Z,-9.12
2023-01-26T05:48:17.307Z,-9.03
2023-01-26T05:52:12.271Z,-8.93
2023-01-26T05:56:12.277Z,-8.86
2023-01-26T06:00:21.889Z,-8.81
2023-01-26T06:08:30.541Z,-8.33
2023-01-26T06:12:38.267Z,-8.57
2023-01-26T06:16:56.248Z,-8.50
2023-01-26T06:25:03.502Z,-8.48
2023-01-26T06:29:04.329Z,-8.62
2023-01-26T06:33:10.317Z,-8.67
2023-01-26T06:37:13.549Z,-8.37
2023-01-26T06:40:43.306Z,-8.25
2023-01-26T06:44:44.291Z,-8.06
2023-01-26T06:48:54.337Z,-8.07
2023-01-26T06:52:43.317Z,-7.57
2023-01-26T06:56:36.347Z,-7.83
2023-01-26T07:00:13.459Z,-7.46
2023-01-26T07:04:17.355Z,-7.21
2023-01-26T07:12:00.854Z,-6.72
2023-01-26T07:15:58.332Z,-6.49
2023-01-26T07:19:36.579Z,-6.50
2023-01-26T07:23:32.253Z,-6.30
2023-01-26T07:27:18.687Z,-6.31
2023-01-26T07:30:55.348Z,-6.26
2023-01-26T07:34:37.356Z,-6.20
2023-01-26T07:38:23.394Z,-6.36
2023-01-26T07:42:20.357Z,-6.39
2023-01-26T07:46:14.333Z,-5.91
2023-01-26T07:53:50.369Z,-5.05
2023-01-26T07:57:33.405Z,-4.54
2023-01-26T08:02:02.857Z,-3.97
2023-01-26T08:05:36.328Z,-3.01
2023-01-26T08:09:26.418Z,-2.25
2023-01-26T08:16:54.392Z,-1.98
2023-01-26T08:20:43.399Z,-2.39
2023-01-26T08:28:05.406Z,0.38
2023-01-26T08:32:03.402Z,1.21
2023-01-26T08:35:59.427Z,0.82
2023-01-26T08:39:59.414Z,-0.50
2023-01-26T08:44:05.370Z,1.34
2023-01-26T08:48:00.428Z,0.08
2023-01-26T08:52:04.735Z,0.46
2023-01-26T08:55:55.871Z,0.25
2023-01-26T08:59:44.514Z,1.04
2023-01-26T09:03:39.535Z,1.59
2023-01-26T09:07:30.761Z,1.93
2023-01-26T09:11:13.476Z,1.63
2023-01-26T09:14:54.425Z,1.38
2023-01-26T09:18:54.401Z,1.83
2023-01-26T09:22:40.476Z,1.15
2023-01-26T09:26:30.486Z,0.61
2023-01-26T09:30:47.516Z,0.93
2023-01-26T09:49:01.682Z,0.06
2023-01-26T12:13:55.615Z,-0.30
2023-01-26T12:25:47.017Z,-0.55
2023-01-26T12:29:47.658Z,-0.57
2023-01-26T12:37:36.053Z,-0.67
2023-01-26T12:45:25.648Z,-0.75
2023-01-26T12:52:49.582Z,-0.84
2023-01-26T12:56:47.628Z,-0.83
2023-01-26T13:19:33.768Z,-1.12
2023-01-26T13:23:20.598Z,-1.17
2023-01-26T13:27:30.514Z,-1.30
2023-01-26T13:31:14.948Z,-1.36
2023-01-26T13:35:20.768Z,-1.45
2023-01-26T13:39:22.615Z,-1.54
2023-01-26T13:43:28.670Z,-1.60
2023-01-26T13:47:28.752Z,-1.68
2023-01-26T13:55:22.674Z,-1.80
2023-01-26T14:06:33.329Z,-2.00
2023-01-26T14:18:55.195Z,-2.33
2023-01-26T14:26:47.757Z,-2.47
2023-01-26T14:34:42.766Z,-2.71
2023-01-26T14:38:35.683Z,-2.80
2023-01-26T14:42:20.568Z,-2.91
2023-01-26T14:45:59.814Z,-3.00
2023-01-26T14:49:43.735Z,-3.05
2023-01-26T14:53:28.722Z,-3.20
2023-01-26T14:57:09.617Z,-3.18
2023-01-26T15:00:56.752Z,-2.99
2023-01-26T15:04:45.700Z,-2.96
2023-01-26T15:08:30.860Z,-2.94
2023-01-26T15:12:31.874Z,-3.02
2023-01-26T15:16:37.751Z,-3.13
2023-01-26T15:20:48.798Z,-3.15
2023-01-26T15:24:53.842Z,-3.22
2023-01-26T15:28:47.400Z,-3.31
2023-01-26T15:37:34.866Z,-3.49
2023-01-26T15:41:23.027Z,-3.56
2023-01-26T15:45:55.615Z,-3.61
2023-01-26T15:49:54.852Z,-3.69
2023-01-26T15:53:24.195Z,-3.71
2023-01-26T15:57:17.573Z,-3.72
2023-01-26T16:01:10.239Z,-3.79
2023-01-26T16:05:14.392Z,-3.86
2023-01-26T16:09:21.987Z,-3.89
2023-01-26T16:13:19.855Z,-3.95
2023-01-26T16:17:11.623Z,-3.99
2023-01-26T16:21:13.684Z,-4.08
2023-01-26T16:24:59.418Z,-4.14
2023-01-26T16:28:56.966Z,-4.21
2023-01-26T16:33:06.111Z,-4.24
2023-01-26T16:37:09.096Z,-4.26
2023-01-26T16:41:22.972Z,-4.28
2023-01-26T16:45:09.125Z,-4.31
2023-01-26T16:49:04.041Z,-4.36
2023-01-26T16:53:13.849Z,-4.36
2023-01-26T16:57:16.305Z,-4.38
2023-01-26T17:01:26.503Z,-4.37
2023-01-26T17:05:39.987Z,-4.37
2023-01-26T17:09:31.284Z,-4.41
2023-01-26T17:13:27.123Z,-4.45
2023-01-26T17:17:25.565Z,-4.48
2023-01-26T17:21:28.505Z,-4.47
2023-01-26T17:25:38.102Z,-4.51
2023-01-26T17:33:59.217Z,-4.56
2023-01-26T17:37:51.218Z,-4.60
2023-01-26T17:41:52.573Z,-4.65
2023-01-26T17:45:53.523Z,-4.57
2023-01-26T17:50:04.604Z,-4.36
2023-01-26T17:54:06.547Z,-4.12
2023-01-26T17:58:03.934Z,-3.92
2023-01-26T18:02:04.383Z,-3.87
2023-01-26T18:05:46.416Z,-3.93
2023-01-26T18:09:47.137Z,-4.10
2023-01-26T18:13:40.830Z,-4.19
2023-01-26T18:17:41.050Z,-4.26
2023-01-26T18:21:32.455Z,-4.22
2023-01-26T18:25:06.842Z,-4.18
2023-01-26T18:29:01.175Z,-4.14
2023-01-26T18:32:33.354Z,-4.13
2023-01-26T18:36:27.927Z,-4.17
2023-01-26T18:40:30.770Z,-4.22
2023-01-26T18:44:35.199Z,-4.45
2023-01-26T18:48:35.452Z,-4.72
2023-01-26T18:52:30.720Z,-4.96
2023-01-26T18:56:23.454Z,-5.01
2023-01-26T19:00:29.095Z,-4.72
2023-01-26T19:04:26.897Z,-4.40
2023-01-26T19:08:23.818Z,-4.38
2023-01-26T19:12:11.158Z,-4.42
2023-01-26T19:15:55.142Z,-4.45
2023-01-26T23:28:30.070Z,-5.95
2023-01-26T23:32:26.169Z,-6.02
2023-01-26T23:36:18.204Z,-6.11
2023-01-26T23:40:06.764Z,-6.16
2023-01-26T23:44:20.057Z,-6.22
2023-01-26T23:48:36.135Z,-6.27
2023-01-26T23:52:55.970Z,-6.34
2023-01-26T23:56:45.500Z,-6.42
